Latest Coastal Weather Observations for Friendly Beaches

IDT60701

Issued at 1:12 pm EST Monday 20 May 2019 (issued every 10 minutes, with the page automatically refreshed every 10 minutes)

About coastal observations | Map of coastal stations | Coastal observations for TAS | Marine services | Other Formats
Station Details ID: 092114 Name: FRIENDLY BEACHES Lat: -42.00 Lon: 148.28 Height: 55.0 m
Data from the previous 72 hours. | See also: Recent months at Friendly Beaches
Date/Time
EST
Wind Sea
Height
m
Swell Vis
km
Cloud Weather Temp
°C
Press
hPa
Rain since
9am
mm
Dir  Spd
kts
Gust
kts
Height
m
Period
s
Dir
20/01:00pm NNE 4 8 - - - - - - - 18.4 1018.2 0.0
20/12:30pm NE 2 4 - - - - - - - 16.8 1018.6 0.0
20/12:00pm ESE 2 3 - - - - - - - 16.5 1019.4 0.0
20/11:30am ENE 2 4 - - - - - - - 16.6 1019.9 0.0
20/11:00am NE 1 3 - - - - - - - 15.8 1020.3 0.0
20/10:30am NNE 4 6 - - - - - - - 15.9 1020.7 0.0
20/10:00am SE 2 5 - - - - - - - 14.5 1021.1 0.0
20/09:30am NNE 4 6 - - - - - - - 13.3 1021.4 0.0
20/09:00am NW 4 5 - - - - - - - 10.2 1021.9 0.2
20/08:30am CALM 0 0 - - - - - - - 10.5 1022.1 0.2
20/08:00am WNW 1 2 - - - - - - - 9.6 1022.1 0.2
20/07:30am NW 2 2 - - - - - - - 8.0 1022.2 0.2
20/07:00am W 2 3 - - - - - - - 7.9 1022.2 0.2
20/06:30am NW 3 4 - - - - - - - 8.3 1022.3 0.2
20/06:00am NW 4 5 - - - - - - - 8.0 1022.4 0.2
20/05:30am WNW 7 9 - - - - - - - 9.1 1022.6 0.2
20/05:00am NW 8 9 - - - - - - - 7.3 1022.8 0.2
20/04:30am WNW 8 9 - - - - - - - 5.3 1023.2 0.2
20/04:00am WNW 7 8 - - - - - - - 5.7 1023.1 0.2
20/03:30am W 5 7 - - - - - - - 5.6 1023.1 0.2
20/03:00am WNW 6 7 - - - - - - Recent precip. 6.1 1023.2 0.2
20/02:30am WNW 5 6 - - - - - - - 7.1 1023.4 0.0
20/02:00am NW 1 6 - - - - - - - 7.1 1023.6 0.0
20/01:30am NW 3 4 - - - - - - - 8.0 1023.8 0.0
20/01:00am SW 1 2 - - - - - - - 8.5 1023.9 0.0
20/12:30am WNW 2 3 - - - - - - - 8.7 1024.3 0.0
20/12:00am NW 4 4 - - - - - - - 8.4 1024.5 0.0
 
Date/Time
EST
Wind Sea
Height
m
Swell Vis
km
Cloud Weather Temp
°C
Press
hPa
Rain since
9am
mm
Dir  Spd
kts
Gust
kts
Height
m
Period
s
Dir
19/11:30pm WNW 6 7 - - - - - - - 8.1 1024.7 0.0
19/11:00pm WNW 6 7 - - - - - - - 8.1 1024.8 0.0
19/10:30pm WNW 6 7 - - - - - - - 8.5 1025.1 0.0
19/10:00pm WNW 6 7 - - - - - - - 8.9 1025.4 0.0
19/09:30pm WNW 5 6 - - - - - - - 9.2 1025.5 0.0
19/09:00pm WNW 3 4 - - - - - - - 9.2 1025.5 0.0
19/08:30pm WNW 4 5 - - - - - - - 10.0 1025.5 0.0
19/08:00pm WNW 4 5 - - - - - - - 9.8 1025.5 0.0
19/07:30pm WNW 6 7 - - - - - - - 9.8 1025.6 0.0
19/07:00pm W 3 5 - - - - - - - 10.8 1025.7 0.0
19/06:30pm CALM 0 0 - - - - - - - 11.9 1025.5 0.0
19/06:00pm CALM 0 0 - - - - - - - 11.6 1025.6 0.0
19/05:30pm CALM 0 0 - - - - - - - 12.2 1025.5 0.0
19/05:00pm CALM 0 0 - - - - - - - 12.3 1025.6 0.0
19/04:30pm NNE 3 5 - - - - - - - 13.5 1025.6 0.0
19/04:00pm NNE 3 4 - - - - - - - 14.2 1025.8 0.0
19/03:30pm NNE 6 10 - - - - - - - 14.3 1025.9 0.0
19/03:00pm NNE 7 12 - - - - - - - 14.9 1026.1 0.0
19/02:30pm NNE 8 11 - - - - - - - 15.4 1026.1 0.0
19/02:00pm NE 8 11 - - - - - - - 15.3 1026.4 0.0
19/01:30pm NE 6 10 - - - - - - - 16.2 1026.7 0.0
19/01:00pm NE 7 12 - - - - - - - 16.1 1027.0 0.0
19/12:30pm NE 8 11 - - - - - - - 16.5 1027.3 0.0
19/12:00pm NE 6 9 - - - - - - - 16.4 1027.6 0.0
19/11:30am NE 5 9 - - - - - - - 16.0 1028.0 0.0
19/11:00am E 3 5 - - - - - - - 14.9 1028.5 0.0
19/10:30am N 2 5 - - - - - - - 14.2 1028.9 0.0
19/10:00am WNW 3 5 - - - - - - - 10.8 1029.0 0.0
19/09:30am WNW 4 5 - - - - - - - 10.0 1029.3 0.0
19/09:00am WNW 3 4 - - - - - - - 10.0 1029.3 0.2
19/08:30am WNW 3 4 - - - - - - - 9.4 1029.5 0.2
19/08:00am WNW 5 5 - - - - - - - 7.4 1029.6 0.2
19/07:30am WNW 5 5 - - - - - - - 8.6 1029.5 0.2
19/07:00am WNW 6 7 - - - - - - - 7.8 1029.4 0.2
19/06:30am WNW 6 7 - - - - - - - 7.3 1029.2 0.2
19/06:00am WNW 5 5 - - - - - - - 8.9 1029.1 0.2
19/05:30am WNW 4 5 - - - - - - - 8.9 1029.0 0.2
19/05:00am WNW 6 7 - - - - - - - 8.2 1029.2 0.2
19/04:30am WNW 4 5 - - - - - - - 8.9 1029.2 0.2
19/04:00am WNW 5 5 - - - - - - - 8.7 1029.3 0.2
19/03:30am WNW 5 5 - - - - - - - 9.2 1029.5 0.2
19/03:00am WNW 4 5 - - - - - - - 9.1 1029.5 0.2
19/02:30am WNW 5 6 - - - - - - - 9.4 1029.8 0.2
19/02:00am WNW 5 5 - - - - - - - 9.5 1030.0 0.2
19/01:30am WNW 5 6 - - - - - - - 8.2 1030.0 0.2
19/01:00am WNW 5 5 - - - - - - - 9.2 1030.3 0.0
19/12:30am NW 5 5 - - - - - - - 9.3 1030.3 0.0
19/12:00am WNW 5 5 - - - - - - - 9.8 1030.3 0.0
 
Date/Time
EST
Wind Sea
Height
m
Swell Vis
km
Cloud Weather Temp
°C
Press
hPa
Rain since
9am
mm
Dir  Spd
kts
Gust
kts
Height
m
Period
s
Dir
18/11:30pm WNW 5 5 - - - - - - - 9.3 1030.4 0.0
18/11:00pm WNW 5 5 - - - - - - - 10.1 1030.6 0.0
18/10:30pm NW 3 4 - - - - - - - 10.1 1030.4 0.0
18/10:00pm WNW 4 5 - - - - - - - 10.5 1030.2 0.0
18/09:30pm WNW 4 5 - - - - - - - 10.7 1030.0 0.0
18/09:00pm WNW 5 6 - - - - - - - 10.7 1029.7 0.0
18/08:30pm NW 5 7 - - - - - - - 11.1 1029.4 0.0
18/08:00pm WNW 4 5 - - - - - - - 10.3 1029.2 0.0
18/07:30pm SW 3 6 - - - - - - - 11.7 1029.2 0.0
18/07:00pm NW 2 4 - - - - - - - 12.5 1028.9 0.0
18/06:30pm NNE 1 3 - - - - - - - 12.4 1028.6 0.0
18/06:00pm N 6 12 - - - - - - - 13.7 1028.2 0.0
18/05:30pm N 5 7 - - - - - - - 12.8 1028.0 0.0
18/05:00pm NNE 4 6 - - - - - - - 13.2 1028.1 0.0
18/04:30pm N 5 7 - - - - - - - 14.3 1027.9 0.0
18/04:00pm NNE 5 6 - - - - - - - 15.0 1027.6 0.0
18/03:30pm NNE 5 8 - - - - - - - 16.1 1027.3 0.0
18/03:00pm NNE 7 12 - - - - - - - 17.6 1027.2 0.0
18/02:30pm NNE 9 13 - - - - - - - 17.9 1027.1 0.0
18/02:00pm NNE 5 9 - - - - - - - 18.5 1027.2 0.0
18/01:30pm SW 3 7 - - - - - - - 19.3 1027.3 0.0
18/01:00pm W 3 7 - - - - - - - 19.1 1027.2 0.0
18/12:30pm SW 5 9 - - - - - - - 18.5 1027.6 0.0
18/12:00pm WSW 5 9 - - - - - - - 18.3 1027.7 0.0
18/11:30am WSW 4 6 - - - - - - - 17.9 1028.2 0.0
18/11:00am SW 5 8 - - - - - - - 17.3 1028.7 0.0
18/10:30am W 4 7 - - - - - - - 16.5 1028.7 0.0
18/10:00am W 3 6 - - - - - - - 14.6 1028.7 0.0
18/09:30am W 2 3 - - - - - - - 13.2 1028.7 0.0
18/09:00am WNW 3 4 - - - - - - - 11.3 1028.5 0.0
18/08:30am WNW 5 8 - - - - - - - 11.3 1028.0 0.0
18/08:00am WNW 4 4 - - - - - - - 9.6 1028.0 0.0
18/07:30am WNW 4 8 - - - - - - - 9.6 1027.6 0.0
18/07:00am WNW 4 5 - - - - - - - 9.5 1027.3 0.0
18/06:30am NW 5 6 - - - - - - - 9.3 1026.9 0.0
18/06:00am NW 6 7 - - - - - - - 9.2 1026.5 0.0
18/05:30am WNW 6 6 - - - - - - - 8.6 1026.6 0.0
18/05:00am NW 6 7 - - - - - - - 9.1 1026.0 0.0
18/04:30am WNW 5 6 - - - - - - - 9.9 1026.1 0.0
18/04:00am WNW 5 5 - - - - - - - 9.2 1026.1 0.0
18/03:30am W 2 3 - - - - - - - 11.3 1026.1 0.0
18/03:00am CALM 0 0 - - - - - - - 10.7 1026.1 0.0
18/02:30am CALM 0 0 - - - - - - - 11.0 1026.0 0.0
18/02:00am CALM 0 0 - - - - - - - 11.4 1025.9 0.0
18/01:30am CALM 0 0 - - - - - - - 11.2 1025.8 0.0
18/01:00am NNE 3 4 - - - - - - - 10.8 1025.7 0.0
18/12:30am CALM 0 0 - - - - - - - 11.1 1025.9 0.0
18/12:00am WNW 6 10 - - - - - - - 13.1 1025.7 0.0
 
Date/Time
EST
Wind Sea
Height
m
Swell Vis
km
Cloud Weather Temp
°C
Press
hPa
Rain since
9am
mm
Dir  Spd
kts
Gust
kts
Height
m
Period
s
Dir
17/11:30pm W 4 9 - - - - - - - 13.2 1025.8 0.0
17/11:00pm WNW 6 10 - - - - - - - 13.2 1025.6 0.0
17/10:30pm NW 7 10 - - - - - - - 12.7 1025.8 0.0
17/10:00pm WNW 3 5 - - - - - - - 11.6 1026.3 0.0
17/09:30pm WNW 4 5 - - - - - - - 11.2 1026.3 0.0
17/09:00pm WNW 3 3 - - - - - - - 10.9 1026.2 0.0
17/08:30pm SW 3 4 - - - - - - - 11.8 1025.9 0.0
17/08:00pm W 4 5 - - - - - - - 12.2 1025.6 0.0
17/07:30pm NW 3 3 - - - - - - - 11.6 1025.4 0.0
17/07:00pm W 4 5 - - - - - - - 12.3 1025.2 0.0
17/06:30pm WNW 4 5 - - - - - - - 12.4 1024.9 0.0
17/06:00pm W 4 5 - - - - - - - 13.1 1024.5 0.0
17/05:30pm WNW 4 5 - - - - - - - 12.7 1024.2 0.0
17/05:00pm NW 2 3 - - - - - - - 12.9 1023.8 0.0
17/04:30pm CALM 0 0 - - - - - - - 14.4 1023.4 0.0
17/04:00pm NNE 5 7 - - - - - - - 15.2 1023.1 0.0
17/03:30pm NNE 6 9 - - - - - - - 15.7 1022.9 0.0
17/03:00pm NNE 7 11 - - - - - - - 16.7 1022.8 0.0
17/02:30pm NE 6 9 - - - - - - - 17.8 1022.7 0.0
17/02:00pm NNE 7 11 - - - - - - - 16.9 1022.9 0.0
17/01:30pm NE 5 8 - - - - - - - 17.4 1023.1 0.0

Other formats

Comma delimited format used in spreadsheet applications
http://www.bom.gov.au/fwo/IDT60701/IDT60701.94987.axf

JavaScript Object Notation format (JSON) in row-major order
http://www.bom.gov.au/fwo/IDT60701/IDT60701.94987.json

Data quality

Most of these data are generated automatically and are frequently updated. Quality checks on data are not normally performed. It is possible for incorrect values to appear. Refer to information at About Latest Weather Observations and please check the disclaimer before using these data.